Time;durP1;ratioP1;P1;durP2;ratioP2;P2;SDS_P1;SDS_P2;PMS_P1;PMS_P2;Temp;Humidity;BMP_temperature;BMP_pressure;BME280_temperature;BME280_humidity;BME280_pressure;Samples;Min_cycle;Max_cycle;Signal;HPM_P1;HPM_P2
2023/08/21 03:02:12;;;;;;;;;;;14.40;99.90;;;;;;5168624;23;19926;-80
2023/08/21 03:04:38;;;;;;;;;;;14.50;99.90;;;;;;4957929;28;20016;-79
2023/08/21 03:07:03;;;;;;;;;;;14.50;99.90;;;;;;4957886;28;19980;-79
2023/08/21 03:09:29;;;;;;;;;;;14.40;99.90;;;;;;4974322;28;19922;-79
2023/08/21 03:11:54;;;;;;;;;;;14.40;99.90;;;;;;4974195;28;19973;-79
2023/08/21 03:14:20;;;;;;;;;;;14.20;99.90;;;;;;4973959;28;19972;-79
2023/08/21 03:16:45;;;;;;;;;;;14.20;99.90;;;;;;4973865;28;19969;-79
2023/08/21 03:19:11;;;;;;;;;;;14.10;99.90;;;;;;4957825;28;19969;-79
2023/08/21 03:21:36;;;;;;;;;;;14.00;99.90;;;;;;4973711;28;19929;-79
2023/08/21 03:24:02;;;;;;;;;;;14.00;99.90;;;;;;4974063;28;19929;-79
2023/08/21 03:26:28;;;;;;;;;;;14.00;99.90;;;;;;4973732;28;20375;-79
2023/08/21 03:28:53;;;;;;;;;;;14.10;99.90;;;;;;4973691;28;19977;-78
2023/08/21 03:31:19;;;;;;;;;;;14.10;99.90;;;;;;4973680;28;20024;-79
2023/08/21 03:33:44;;;;;;;;;;;14.10;99.90;;;;;;4974292;28;19922;-79
2023/08/21 03:36:10;;;;;;;;;;;14.10;99.90;;;;;;4973661;28;20009;-79
2023/08/21 03:38:36;;;;;;;;;;;14.10;99.90;;;;;;4973959;28;19945;-79
2023/08/21 03:41:02;;;;;;;;;;;14.10;99.90;;;;;;4973594;28;19922;-80
2023/08/21 03:43:27;;;;;;;;;;;14.20;99.90;;;;;;4957595;28;19969;-80
2023/08/21 03:45:53;;;;;;;;;;;14.20;99.90;;;;;;4973682;28;19935;-80
2023/08/21 03:48:18;;;;;;;;;;;14.10;99.90;;;;;;4973604;28;19926;-80
2023/08/21 03:50:44;;;;;;;;;;;14.10;99.90;;;;;;4973478;28;19950;-79
2023/08/21 03:53:09;;;;;;;;;;;14.00;99.90;;;;;;4973911;28;20013;-79
2023/08/21 03:55:35;;;;;;;;;;;14.00;99.90;;;;;;4973528;28;19922;-80
2023/08/21 03:58:00;;;;;;;;;;;14.00;99.90;;;;;;4973575;28;19922;-78
2023/08/21 04:00:26;;;;;;;;;;;14.00;99.90;;;;;;4973307;28;20370;-79
2023/08/21 04:02:51;;;;;;;;;;;13.90;99.90;;;;;;4973726;28;19976;-79
2023/08/21 04:05:17;;;;;;;;;;;14.00;99.90;;;;;;4973720;28;19969;-79
2023/08/21 04:07:42;;;;;;;;;;;14.00;99.90;;;;;;4973360;28;19933;-79
2023/08/21 04:10:08;;;;;;;;;;;13.90;99.90;;;;;;4974673;28;19922;-79
2023/08/21 04:12:33;;;;;;;;;;;13.90;99.90;;;;;;4973248;28;20426;-79
2023/08/21 04:14:59;;;;;;;;;;;13.80;99.90;;;;;;4973972;28;19928;-79
2023/08/21 04:17:25;;;;;;;;;;;13.80;99.90;;;;;;4960867;28;20122;-79
2023/08/21 04:19:51;;;;;;;;;;;13.80;99.90;;;;;;4960907;28;19922;-79
2023/08/21 04:22:17;;;;;;;;;;;13.80;99.90;;;;;;4976706;28;19922;-80
2023/08/21 04:24:42;;;;;;;;;;;13.80;99.90;;;;;;4977096;28;19922;-79
2023/08/21 04:27:08;;;;;;;;;;;13.80;99.90;;;;;;4977364;28;19922;-80
2023/08/21 04:29:38;;;;;;;;;;;13.80;99.90;;;;;;4976995;28;19969;-79
2023/08/21 04:32:04;;;;;;;;;;;13.80;99.90;;;;;;4976663;28;19930;-79
2023/08/21 04:34:29;;;;;;;;;;;13.80;99.90;;;;;;4977854;28;19922;-80
2023/08/21 04:36:55;;;;;;;;;;;13.80;99.90;;;;;;4976629;28;19923;-80
2023/08/21 04:39:21;;;;;;;;;;;13.80;99.90;;;;;;4976618;28;19922;-80
2023/08/21 04:41:46;;;;;;;;;;;13.80;99.90;;;;;;4976434;28;19931;-79
2023/08/21 04:44:12;;;;;;;;;;;13.80;99.90;;;;;;4976479;28;19929;-79
2023/08/21 04:46:37;;;;;;;;;;;13.70;99.90;;;;;;4976407;28;19922;-79
2023/08/21 04:49:03;;;;;;;;;;;13.70;99.90;;;;;;4976329;28;19926;-80
2023/08/21 04:51:28;;;;;;;;;;;13.70;99.90;;;;;;4976270;28;20012;-80
2023/08/21 04:53:54;;;;;;;;;;;13.70;99.90;;;;;;4976313;28;19926;-80
2023/08/21 04:56:19;;;;;;;;;;;13.70;99.90;;;;;;4976290;28;19929;-80
2023/08/21 04:58:45;;;;;;;;;;;13.70;99.90;;;;;;4976556;28;19925;-79
2023/08/21 05:01:11;;;;;;;;;;;13.80;99.90;;;;;;4976238;28;19922;-79
2023/08/21 05:03:36;;;;;;;;;;;13.70;99.90;;;;;;4976224;28;19926;-80
2023/08/21 05:06:02;;;;;;;;;;;13.70;99.90;;;;;;4976047;28;19953;-79
2023/08/21 05:08:27;;;;;;;;;;;13.60;99.90;;;;;;4976051;28;19926;-79
2023/08/21 05:10:56;;;;;;;;;;;13.60;99.90;;;;;;4975915;28;19922;-80
2023/08/21 05:13:22;;;;;;;;;;;13.60;99.90;;;;;;4975974;28;19929;-79
2023/08/21 05:15:52;;;;;;;;;;;13.70;99.90;;;;;;4959772;28;19922;-79
2023/08/21 05:18:17;;;;;;;;;;;13.70;99.90;;;;;;4959838;28;19922;-80
2023/08/21 05:20:43;;;;;;;;;;;13.80;99.90;;;;;;4975730;28;19928;-80
2023/08/21 05:23:08;;;;;;;;;;;13.80;99.90;;;;;;4977026;28;20001;-79
2023/08/21 05:25:34;;;;;;;;;;;13.80;99.90;;;;;;4959932;28;19949;-79
2023/08/21 05:28:00;;;;;;;;;;;13.80;99.90;;;;;;4974828;28;19984;-80
2023/08/21 05:30:25;;;;;;;;;;;13.80;99.90;;;;;;4976698;28;20291;-80
2023/08/21 05:32:51;;;;;;;;;;;13.80;99.90;;;;;;4975543;28;19952;-81
2023/08/21 05:35:16;;;;;;;;;;;13.90;99.90;;;;;;4975653;28;19930;-81
2023/08/21 05:37:42;;;;;;;;;;;13.90;99.90;;;;;;4976985;28;19922;-80
2023/08/21 05:40:08;;;;;;;;;;;14.00;99.90;;;;;;4975540;28;20012;-80
2023/08/21 05:42:34;;;;;;;;;;;14.00;99.90;;;;;;4977660;28;19926;-82
2023/08/21 05:44:59;;;;;;;;;;;14.10;99.90;;;;;;4975415;28;19922;-79
2023/08/21 05:47:26;;;;;;;;;;;14.20;99.90;;;;;;4975275;28;19965;-80
2023/08/21 05:49:53;;;;;;;;;;;14.30;99.90;;;;;;4975303;28;20383;-80
2023/08/21 05:52:18;;;;;;;;;;;14.30;99.90;;;;;;4976269;28;19953;-79
2023/08/21 05:54:44;;;;;;;;;;;14.40;99.90;;;;;;4975204;28;19926;-80
2023/08/21 05:57:10;;;;;;;;;;;14.50;99.90;;;;;;4975523;28;19922;-79
2023/08/21 05:59:35;;;;;;;;;;;14.50;99.90;;;;;;4975238;28;20269;-81
2023/08/21 06:02:01;;;;;;;;;;;14.60;99.90;;;;;;4975351;28;20280;-81
2023/08/21 06:04:28;;;;;;;;;;;14.70;99.90;;;;;;4974546;28;21326;-82
2023/08/21 06:06:54;;;;;;;;;;;14.80;99.90;;;;;;4976072;28;19926;-80
2023/08/21 06:09:19;;;;;;;;;;;14.80;99.90;;;;;;4974964;28;19930;-81
2023/08/21 06:11:45;;;;;;;;;;;14.90;99.90;;;;;;4976208;28;20008;-81
2023/08/21 06:14:10;;;;;;;;;;;14.90;99.90;;;;;;4975241;28;20000;-81
2023/08/21 06:16:36;;;;;;;;;;;15.00;99.90;;;;;;4975629;28;20018;-80
2023/08/21 06:19:01;;;;;;;;;;;15.00;99.90;;;;;;4974943;28;19922;-79
2023/08/21 06:21:27;;;;;;;;;;;15.10;99.90;;;;;;4974710;28;20302;-79
2023/08/21 06:23:53;;;;;;;;;;;15.20;99.90;;;;;;4974620;28;19930;-80
2023/08/21 06:26:18;;;;;;;;;;;15.30;99.90;;;;;;4976138;28;19923;-80
2023/08/21 06:28:44;;;;;;;;;;;15.30;99.90;;;;;;4974797;28;19953;-80
2023/08/21 06:31:09;;;;;;;;;;;15.40;99.90;;;;;;4974888;28;20008;-80
2023/08/21 06:33:35;;;;;;;;;;;15.50;99.90;;;;;;4974680;28;19922;-80
2023/08/21 06:36:01;;;;;;;;;;;15.60;99.90;;;;;;4976602;28;19929;-81
2023/08/21 06:38:26;;;;;;;;;;;15.70;99.90;;;;;;4975851;28;19922;-81
2023/08/21 06:40:52;;;;;;;;;;;15.80;99.90;;;;;;4974466;28;19929;-80
2023/08/21 06:43:17;;;;;;;;;;;15.90;99.90;;;;;;4974444;28;19976;-81
2023/08/21 06:45:43;;;;;;;;;;;15.90;99.90;;;;;;4974478;28;19929;-81
2023/08/21 06:48:08;;;;;;;;;;;16.10;99.90;;;;;;4974466;28;19926;-81
2023/08/21 06:50:34;;;;;;;;;;;16.20;99.90;;;;;;4975810;28;19922;-81
2023/08/21 06:52:59;;;;;;;;;;;16.30;99.90;;;;;;4974152;28;19929;-81
2023/08/21 06:55:25;;;;;;;;;;;16.40;99.90;;;;;;4974452;28;19968;-81
2023/08/21 06:57:50;;;;;;;;;;;16.50;99.90;;;;;;4974328;28;19929;-80
2023/08/21 07:00:16;;;;;;;;;;;16.60;99.90;;;;;;4973970;28;19922;-80
2023/08/21 07:02:41;;;;;;;;;;;16.70;99.90;;;;;;4974393;28;19929;-81
2023/08/21 07:05:08;;;;;;;;;;;16.80;99.90;;;;;;4958491;28;19929;-81
2023/08/21 07:07:33;;;;;;;;;;;16.90;99.90;;;;;;4974504;28;20318;-80
2023/08/21 07:09:59;;;;;;;;;;;17.00;99.90;;;;;;4974711;28;19926;-81
2023/08/21 07:12:24;;;;;;;;;;;17.10;99.90;;;;;;4974069;28;20399;-81
2023/08/21 07:14:50;;;;;;;;;;;17.20;99.90;;;;;;4974273;28;20303;-79
2023/08/21 07:17:15;;;;;;;;;;;17.30;99.90;;;;;;4975705;28;20287;-79
2023/08/21 07:19:41;;;;;;;;;;;17.40;99.90;;;;;;4974529;28;19922;-81
2023/08/21 07:22:06;;;;;;;;;;;17.40;99.90;;;;;;4974520;28;19929;-80
2023/08/21 07:24:32;;;;;;;;;;;17.50;99.90;;;;;;4974481;28;20299;-81
2023/08/21 07:26:58;;;;;;;;;;;17.60;99.90;;;;;;4974031;28;20387;-80
2023/08/21 07:29:24;;;;;;;;;;;17.60;99.90;;;;;;4975488;28;19933;-79
2023/08/21 07:31:49;;;;;;;;;;;17.80;99.90;;;;;;4975490;28;19922;-80
2023/08/21 07:34:15;;;;;;;;;;;17.90;99.90;;;;;;4974239;28;20371;-81
2023/08/21 07:36:41;;;;;;;;;;;18.00;99.90;;;;;;4976033;28;20372;-81
2023/08/21 07:39:06;;;;;;;;;;;18.10;99.90;;;;;;4975117;28;19922;-80
2023/08/21 07:41:32;;;;;;;;;;;18.20;99.90;;;;;;4973847;28;19922;-80
2023/08/21 07:43:57;;;;;;;;;;;18.30;99.90;;;;;;4975496;28;20419;-80
2023/08/21 07:46:23;;;;;;;;;;;18.40;99.90;;;;;;4974056;28;19922;-81
2023/08/21 07:48:49;;;;;;;;;;;18.40;99.90;;;;;;4975069;28;19926;-81
2023/08/21 07:51:15;;;;;;;;;;;18.40;99.90;;;;;;4978149;28;19922;-81
2023/08/21 07:53:40;;;;;;;;;;;18.50;99.90;;;;;;4978302;28;19922;-80
2023/08/21 07:56:06;;;;;;;;;;;18.50;99.90;;;;;;4977774;28;19922;-80
2023/08/21 07:58:32;;;;;;;;;;;18.60;99.90;;;;;;4978982;28;20339;-80
2023/08/21 08:00:58;;;;;;;;;;;18.70;99.90;;;;;;4979076;28;19923;-80
2023/08/21 08:03:23;;;;;;;;;;;18.80;99.90;;;;;;4961344;28;19922;-80
2023/08/21 08:05:49;;;;;;;;;;;18.80;99.90;;;;;;4978761;28;19922;-81
2023/08/21 08:08:16;;;;;;;;;;;18.90;99.90;;;;;;4961351;28;19973;-80
2023/08/21 08:10:42;;;;;;;;;;;19.00;99.90;;;;;;4977583;28;19922;-81
2023/08/21 08:13:08;;;;;;;;;;;19.10;99.90;;;;;;4978410;28;19973;-80
2023/08/21 08:15:34;;;;;;;;;;;19.20;99.90;;;;;;4978560;28;19922;-82
2023/08/21 08:18:01;;;;;;;;;;;19.30;99.90;;;;;;4977356;28;20384;-80
2023/08/21 08:20:26;;;;;;;;;;;19.40;99.90;;;;;;4978791;28;19922;-82
2023/08/21 08:22:52;;;;;;;;;;;19.50;99.90;;;;;;4961378;28;19930;-82
2023/08/21 08:25:17;;;;;;;;;;;19.60;99.90;;;;;;4979104;28;19931;-80
2023/08/21 08:27:43;;;;;;;;;;;19.60;99.90;;;;;;4977469;28;20340;-81
2023/08/21 08:30:09;;;;;;;;;;;19.70;99.90;;;;;;4976876;28;19990;-80
2023/08/21 08:32:35;;;;;;;;;;;19.80;99.90;;;;;;4976915;28;20017;-80
2023/08/21 08:35:01;;;;;;;;;;;19.80;99.90;;;;;;4976882;28;20387;-79
2023/08/21 08:37:27;;;;;;;;;;;20.00;99.90;;;;;;4978484;28;20005;-79
2023/08/21 08:39:52;;;;;;;;;;;20.10;99.90;;;;;;4976875;28;19926;-81
2023/08/21 08:42:18;;;;;;;;;;;20.20;99.90;;;;;;4978339;28;19926;-80
2023/08/21 08:44:43;;;;;;;;;;;20.30;99.90;;;;;;4978261;28;19933;-81
2023/08/21 08:47:14;;;;;;;;;;;20.30;99.90;;;;;;4978199;28;19962;-80
2023/08/21 08:49:40;;;;;;;;;;;20.40;99.90;;;;;;4979198;28;19922;-80
2023/08/21 08:52:06;;;;;;;;;;;20.50;99.90;;;;;;4978147;28;19922;-79
2023/08/21 08:54:31;;;;;;;;;;;20.50;99.90;;;;;;4976781;28;19922;-81
2023/08/21 08:56:58;;;;;;;;;;;20.60;99.90;;;;;;4976391;28;19968;-81
2023/08/21 08:59:24;;;;;;;;;;;20.70;99.90;;;;;;4977704;28;19922;-80
2023/08/21 09:01:49;;;;;;;;;;;20.80;99.90;;;;;;4977890;28;19969;-81
2023/08/21 09:04:16;;;;;;;;;;;20.90;99.90;;;;;;4975996;28;19922;-80
2023/08/21 09:06:41;;;;;;;;;;;21.00;99.90;;;;;;4977905;28;19922;-82
2023/08/21 09:09:07;;;;;;;;;;;21.00;99.90;;;;;;4976446;28;20367;-82
2023/08/21 09:11:33;;;;;;;;;;;21.10;99.90;;;;;;4976865;28;19930;-80
2023/08/21 09:13:59;;;;;;;;;;;21.20;99.90;;;;;;4977211;28;19925;-80
2023/08/21 09:16:25;;;;;;;;;;;21.20;99.90;;;;;;4977894;28;19926;-81
2023/08/21 09:18:57;;;;;;;;;;;21.40;99.90;;;;;;4977627;28;20009;-82
2023/08/21 09:21:24;;;;;;;;;;;21.40;99.90;;;;;;4976110;28;19944;-80
2023/08/21 09:23:55;;;;;;;;;;;21.50;99.90;;;;;;4960126;28;19922;-80
2023/08/21 09:26:21;;;;;;;;;;;21.50;99.90;;;;;;4978761;28;19922;-80
2023/08/21 09:28:51;;;;;;;;;;;21.60;99.90;;;;;;4981541;28;19926;-82
2023/08/21 09:31:29;;;;;;;;;;;21.70;99.90;;;;;;4979977;28;19929;-82
2023/08/21 09:33:59;;;;;;;;;;;21.80;99.90;;;;;;4976746;28;19933;-81
2023/08/21 09:36:24;;;;;;;;;;;21.80;99.90;;;;;;4976953;28;19926;-82
2023/08/21 09:38:53;;;;;;;;;;;21.90;99.90;;;;;;4977118;28;20025;-80
2023/08/21 09:41:19;;;;;;;;;;;22.00;99.90;;;;;;4975989;28;19926;-80
2023/08/21 09:43:45;;;;;;;;;;;22.10;99.90;;;;;;4976222;28;19944;-80
2023/08/21 09:46:14;;;;;;;;;;;22.20;99.90;;;;;;4977541;28;20395;-80
2023/08/21 09:48:40;;;;;;;;;;;22.30;99.90;;;;;;4976541;28;19926;-80
2023/08/21 09:51:06;;;;;;;;;;;22.40;99.90;;;;;;4976706;28;19922;-81
2023/08/21 09:53:32;;;;;;;;;;;22.50;99.90;;;;;;4976750;28;19928;-83
2023/08/21 09:55:59;;;;;;;;;;;22.50;99.90;;;;;;4976803;28;19953;-81
2023/08/21 09:58:24;;;;;;;;;;;22.60;99.90;;;;;;4976767;28;19934;-81
2023/08/21 10:00:51;;;;;;;;;;;22.60;99.90;;;;;;4976302;28;20288;-81
2023/08/21 10:03:18;;;;;;;;;;;22.70;99.90;;;;;;4976598;28;19926;-79
2023/08/21 10:05:44;;;;;;;;;;;22.80;99.90;;;;;;4975682;28;19922;-82
2023/08/21 10:08:10;;;;;;;;;;;22.90;99.90;;;;;;4976647;28;19934;-81
2023/08/21 10:10:39;;;;;;;;;;;22.90;99.90;;;;;;4977019;28;19922;-81
2023/08/21 10:13:06;;;;;;;;;;;23.00;99.90;;;;;;4974725;28;19926;-80
2023/08/21 10:15:33;;;;;;;;;;;23.00;99.90;;;;;;4975441;28;20299;-80
2023/08/21 10:18:17;;;;;;;;;;;23.00;99.90;;;;;;4975943;28;20355;-81
2023/08/21 10:20:43;;;;;;;;;;;23.10;99.90;;;;;;4970719;28;19982;-81
2023/08/21 10:23:08;;;;;;;;;;;23.10;99.90;;;;;;4962082;28;19926;-79
2023/08/21 10:25:40;;;;;;;;;;;23.20;99.90;;;;;;4962854;28;19981;-81
2023/08/21 10:28:06;;;;;;;;;;;23.30;99.90;;;;;;4963450;28;19969;-81
2023/08/21 10:30:32;;;;;;;;;;;23.30;99.90;;;;;;4963330;28;19973;-80
2023/08/21 10:32:58;;;;;;;;;;;23.50;99.90;;;;;;4967260;28;19929;-80
2023/08/21 10:35:25;;;;;;;;;;;23.50;99.90;;;;;;4975054;28;19993;-83
2023/08/21 10:38:13;;;;;;;;;;;23.50;99.90;;;;;;4974282;28;19933;-80
2023/08/21 10:40:39;;;;;;;;;;;23.60;99.90;;;;;;4975662;28;19969;-81
2023/08/21 10:43:25;;;;;;;;;;;23.70;99.90;;;;;;4957259;28;19926;-81
2023/08/21 10:45:55;;;;;;;;;;;23.70;99.90;;;;;;4957678;28;20767;-79
2023/08/21 10:48:21;;;;;;;;;;;23.80;99.90;;;;;;4954483;28;20018;-80
2023/08/21 10:50:47;;;;;;;;;;;23.90;99.90;;;;;;4971084;28;20009;-80
2023/08/21 10:53:13;;;;;;;;;;;24.00;99.90;;;;;;4973306;28;19926;-79
2023/08/21 10:55:38;;;;;;;;;;;24.10;99.90;;;;;;4961879;28;19923;-79
2023/08/21 10:58:04;;;;;;;;;;;24.10;99.90;;;;;;4968158;28;19926;-80
2023/08/21 11:00:30;;;;;;;;;;;24.10;99.90;;;;;;4969087;28;20005;-81
2023/08/21 11:02:55;;;;;;;;;;;24.10;99.90;;;;;;4973482;28;19949;-81
2023/08/21 11:05:21;;;;;;;;;;;24.10;99.90;;;;;;4967384;28;19926;-81
2023/08/21 11:07:47;;;;;;;;;;;24.10;99.90;;;;;;4956538;28;19973;-81
2023/08/21 11:10:14;;;;;;;;;;;24.00;99.90;;;;;;4953823;29;19926;-82
2023/08/21 11:12:52;;;;;;;;;;;24.10;99.90;;;;;;4953476;29;20376;-79
2023/08/21 11:15:18;;;;;;;;;;;24.20;99.90;;;;;;4954924;28;19922;-82
2023/08/21 11:17:52;;;;;;;;;;;24.20;99.90;;;;;;4955036;28;19974;-81
2023/08/21 11:20:18;;;;;;;;;;;24.10;99.90;;;;;;4954009;29;20283;-81
2023/08/21 11:22:43;;;;;;;;;;;24.00;99.90;;;;;;4958983;28;19933;-81
2023/08/21 11:25:09;;;;;;;;;;;24.10;99.90;;;;;;4972032;28;19922;-81
2023/08/21 11:27:35;;;;;;;;;;;24.10;99.90;;;;;;4974292;28;19934;-81
2023/08/21 11:30:00;;;;;;;;;;;24.20;99.90;;;;;;4972561;28;19926;-81
2023/08/21 11:32:26;;;;;;;;;;;24.30;99.90;;;;;;4973960;28;19928;-80
2023/08/21 11:34:52;;;;;;;;;;;24.40;99.90;;;;;;4972746;28;19933;-80
2023/08/21 11:37:19;;;;;;;;;;;24.40;99.90;;;;;;4973691;28;19928;-79
2023/08/21 11:39:46;;;;;;;;;;;24.30;99.90;;;;;;4972479;28;20458;-80
2023/08/21 11:42:12;;;;;;;;;;;24.10;99.90;;;;;;4972893;28;19926;-80
2023/08/21 11:44:42;;;;;;;;;;;24.10;99.90;;;;;;4956586;28;20407;-81
2023/08/21 11:47:08;;;;;;;;;;;24.20;99.90;;;;;;4972956;28;19922;-80
2023/08/21 11:49:35;;;;;;;;;;;24.40;99.90;;;;;;4973050;28;19972;-80
2023/08/21 11:52:01;;;;;;;;;;;24.50;99.90;;;;;;4972282;28;19926;-80
2023/08/21 11:54:31;;;;;;;;;;;24.50;99.90;;;;;;4974004;28;19928;-79
2023/08/21 11:56:57;;;;;;;;;;;24.60;99.90;;;;;;4973940;28;19922;-79
2023/08/21 11:59:23;;;;;;;;;;;24.70;99.90;;;;;;4972330;28;19948;-79
2023/08/21 12:01:52;;;;;;;;;;;24.90;99.90;;;;;;4973879;28;19929;-80
2023/08/21 12:04:18;;;;;;;;;;;25.00;99.90;;;;;;4954736;29;19923;-80
2023/08/21 12:06:46;;;;;;;;;;;25.10;99.90;;;;;;4955137;28;19926;-79
2023/08/21 12:09:12;;;;;;;;;;;25.10;99.90;;;;;;4953294;29;20017;-82
2023/08/21 12:11:38;;;;;;;;;;;25.00;99.90;;;;;;4954105;28;20009;-80
2023/08/21 12:14:04;;;;;;;;;;;25.10;99.90;;;;;;4954575;28;20387;-82
2023/08/21 12:16:29;;;;;;;;;;;25.00;99.90;;;;;;4953114;29;19923;-79
2023/08/21 12:18:57;;;;;;;;;;;25.00;99.90;;;;;;4954133;28;19929;-80
2023/08/21 12:21:23;;;;;;;;;;;25.00;99.90;;;;;;4954342;28;19941;-81
2023/08/21 12:23:50;;;;;;;;;;;25.20;99.90;;;;;;4954546;28;19929;-84
2023/08/21 12:26:20;;;;;;;;;;;25.30;99.90;;;;;;4954552;28;19922;-81
2023/08/21 12:28:46;;;;;;;;;;;25.30;99.90;;;;;;4953140;29;19926;-82
2023/08/21 12:31:12;;;;;;;;;;;25.30;99.90;;;;;;4954201;28;20396;-81
2023/08/21 12:33:38;;;;;;;;;;;25.30;99.90;;;;;;4954641;28;19950;-79
2023/08/21 12:36:03;;;;;;;;;;;25.40;99.90;;;;;;4954935;28;20398;-79
2023/08/21 12:38:29;;;;;;;;;;;25.40;99.90;;;;;;4958165;28;19922;-82
2023/08/21 12:40:54;;;;;;;;;;;25.50;99.90;;;;;;4957441;28;20369;-82
2023/08/21 12:43:20;;;;;;;;;;;25.50;99.90;;;;;;4957895;28;19923;-79
2023/08/21 12:45:47;;;;;;;;;;;25.50;99.90;;;;;;4957478;28;20026;-80
2023/08/21 12:48:12;;;;;;;;;;;25.60;99.90;;;;;;4956513;28;19936;-80
2023/08/21 12:50:38;;;;;;;;;;;25.60;99.90;;;;;;4956338;29;20009;-79
2023/08/21 12:53:04;;;;;;;;;;;25.60;99.90;;;;;;4957965;28;19927;-80
2023/08/21 12:55:30;;;;;;;;;;;25.70;99.90;;;;;;4961279;28;20454;-80
2023/08/21 12:57:56;;;;;;;;;;;25.60;99.90;;;;;;4975291;28;19928;-80
2023/08/21 13:00:22;;;;;;;;;;;25.50;99.90;;;;;;4968999;28;19949;-79
2023/08/21 13:02:47;;;;;;;;;;;25.50;99.90;;;;;;4962491;28;19922;-79
2023/08/21 13:05:13;;;;;;;;;;;25.70;99.90;;;;;;4964210;28;19977;-79
2023/08/21 13:07:38;;;;;;;;;;;25.70;99.90;;;;;;4961313;28;19990;-79
2023/08/21 13:10:04;;;;;;;;;;;25.70;99.90;;;;;;4956074;29;19932;-79
2023/08/21 13:12:30;;;;;;;;;;;25.60;99.90;;;;;;4957143;28;19923;-81
2023/08/21 13:14:55;;;;;;;;;;;25.70;99.90;;;;;;4957025;28;19972;-78
2023/08/21 13:17:21;;;;;;;;;;;25.70;99.90;;;;;;4955610;29;19927;-83
2023/08/21 13:19:49;;;;;;;;;;;25.80;99.90;;;;;;4955851;29;19929;-82
2023/08/21 13:22:16;;;;;;;;;;;25.80;99.90;;;;;;4955815;29;19929;-80
2023/08/21 13:24:42;;;;;;;;;;;25.70;99.90;;;;;;4955807;29;19969;-81
2023/08/21 13:27:07;;;;;;;;;;;25.70;99.90;;;;;;4956037;29;19961;-80
2023/08/21 13:29:33;;;;;;;;;;;25.80;99.90;;;;;;4955427;29;19977;-79
2023/08/21 13:31:59;;;;;;;;;;;25.80;99.90;;;;;;4957047;28;20352;-78
2023/08/21 13:34:24;;;;;;;;;;;25.80;99.90;;;;;;4956717;28;19933;-80
2023/08/21 13:36:51;;;;;;;;;;;25.70;99.90;;;;;;4956956;28;19972;-81
2023/08/21 13:39:16;;;;;;;;;;;25.70;99.90;;;;;;4956491;29;20372;-80
2023/08/21 13:41:42;;;;;;;;;;;25.80;99.90;;;;;;4955290;29;19926;-79
2023/08/21 13:44:08;;;;;;;;;;;25.80;99.90;;;;;;4955613;29;20332;-78
2023/08/21 13:46:34;;;;;;;;;;;25.90;99.90;;;;;;4956841;28;19926;-81
2023/08/21 13:48:59;;;;;;;;;;;25.90;99.90;;;;;;4955132;28;20395;-80
2023/08/21 13:51:25;;;;;;;;;;;25.80;99.90;;;;;;4955794;29;19924;-80
2023/08/21 13:53:51;;;;;;;;;;;25.80;99.90;;;;;;4955577;29;20360;-81
2023/08/21 13:56:16;;;;;;;;;;;25.80;99.90;;;;;;4955031;29;19923;-79
2023/08/21 13:58:42;;;;;;;;;;;25.80;99.90;;;;;;4954691;29;20612;-78
2023/08/21 14:01:08;;;;;;;;;;;25.90;99.90;;;;;;4956291;28;20260;-80
2023/08/21 14:03:33;;;;;;;;;;;25.90;99.90;;;;;;4956140;28;19961;-79
2023/08/21 14:05:59;;;;;;;;;;;25.90;99.90;;;;;;4956614;29;19922;-80
2023/08/21 14:08:25;;;;;;;;;;;26.00;99.90;;;;;;4956092;28;20024;-78
2023/08/21 14:10:50;;;;;;;;;;;25.90;99.90;;;;;;4954438;29;19922;-78
2023/08/21 14:13:16;;;;;;;;;;;26.00;99.90;;;;;;4955582;28;19923;-79
2023/08/21 14:15:42;;;;;;;;;;;25.90;99.90;;;;;;4938230;29;19953;-80
2023/08/21 14:18:07;;;;;;;;;;;25.90;99.90;;;;;;4954218;29;19992;-80
2023/08/21 14:20:33;;;;;;;;;;;25.90;99.90;;;;;;4938386;29;19933;-79
2023/08/21 14:22:58;;;;;;;;;;;25.90;99.90;;;;;;4954099;29;20296;-81
2023/08/21 14:25:24;;;;;;;;;;;26.00;99.90;;;;;;4954008;28;20009;-81
2023/08/21 14:27:50;;;;;;;;;;;25.90;99.90;;;;;;4955799;28;19927;-80
2023/08/21 14:30:15;;;;;;;;;;;26.00;99.90;;;;;;4955462;29;19974;-79
2023/08/21 14:32:42;;;;;;;;;;;25.90;99.90;;;;;;4938390;29;19922;-78
2023/08/21 14:35:08;;;;;;;;;;;25.90;99.90;;;;;;4953935;29;20021;-81
2023/08/21 14:37:34;;;;;;;;;;;25.90;99.90;;;;;;4954274;29;19934;-80
2023/08/21 14:39:59;;;;;;;;;;;26.00;99.90;;;;;;4955513;28;19922;-78
2023/08/21 14:42:25;;;;;;;;;;;26.00;99.90;;;;;;4955394;28;19922;-80
2023/08/21 14:44:50;;;;;;;;;;;26.00;99.90;;;;;;4955646;28;19922;-82
2023/08/21 14:47:16;;;;;;;;;;;26.00;99.90;;;;;;4953857;29;19969;-79
2023/08/21 14:49:41;;;;;;;;;;;26.00;99.90;;;;;;4954091;29;19973;-79
2023/08/21 14:52:07;;;;;;;;;;;26.10;99.90;;;;;;4955176;28;19977;-81
2023/08/21 14:54:36;;;;;;;;;;;26.00;99.90;;;;;;4955534;28;19923;-81
2023/08/21 14:57:01;;;;;;;;;;;26.10;99.90;;;;;;4954163;29;19923;-78
2023/08/21 14:59:27;;;;;;;;;;;26.10;99.90;;;;;;4955178;28;19922;-81
2023/08/21 15:01:54;;;;;;;;;;;26.20;99.90;;;;;;4953947;28;20280;-80
2023/08/21 15:04:19;;;;;;;;;;;26.10;99.90;;;;;;4953763;29;20319;-80
2023/08/21 15:06:45;;;;;;;;;;;26.10;99.90;;;;;;4955061;28;19930;-80
2023/08/21 15:09:10;;;;;;;;;;;26.10;99.90;;;;;;4953438;29;20400;-80
2023/08/21 15:11:36;;;;;;;;;;;26.20;99.90;;;;;;4954675;28;20295;-81
2023/08/21 15:14:02;;;;;;;;;;;26.20;99.90;;;;;;4964220;28;19923;-78
2023/08/21 15:16:28;;;;;;;;;;;26.20;99.90;;;;;;4969163;28;19922;-80
2023/08/21 15:18:54;;;;;;;;;;;26.20;99.90;;;;;;4972864;28;19980;-79
2023/08/21 15:21:19;;;;;;;;;;;26.20;99.90;;;;;;4973254;28;20012;-80
2023/08/21 15:23:46;;;;;;;;;;;26.20;99.90;;;;;;4974022;28;20402;-80
2023/08/21 15:26:11;;;;;;;;;;;26.00;99.90;;;;;;4972842;28;19977;-80
2023/08/21 15:28:37;;;;;;;;;;;25.90;99.90;;;;;;4975579;28;19926;-81
2023/08/21 15:31:03;;;;;;;;;;;25.90;99.90;;;;;;4975645;28;20367;-77
2023/08/21 15:33:28;;;;;;;;;;;25.70;99.90;;;;;;4974602;28;19926;-79
2023/08/21 15:35:54;;;;;;;;;;;25.60;99.90;;;;;;4974063;28;19930;-81
2023/08/21 15:38:19;;;;;;;;;;;25.50;99.90;;;;;;4974042;28;19922;-79
2023/08/21 15:40:45;;;;;;;;;;;25.50;99.90;;;;;;4974120;28;19980;-80
2023/08/21 15:43:11;;;;;;;;;;;25.50;99.90;;;;;;4974166;28;19926;-78
2023/08/21 15:45:37;;;;;;;;;;;25.50;99.90;;;;;;4973865;28;20323;-80
2023/08/21 15:48:02;;;;;;;;;;;25.60;99.90;;;;;;4973868;28;19926;-77
2023/08/21 15:50:28;;;;;;;;;;;25.60;99.90;;;;;;4972108;28;20276;-79
2023/08/21 15:52:53;;;;;;;;;;;25.60;99.90;;;;;;4973935;28;19926;-80
2023/08/21 15:55:19;;;;;;;;;;;25.60;99.90;;;;;;4973655;28;19985;-78
2023/08/21 15:57:45;;;;;;;;;;;25.50;99.90;;;;;;4973768;28;19934;-80
2023/08/21 16:00:11;;;;;;;;;;;25.40;99.90;;;;;;4972275;28;20388;-81
2023/08/21 16:02:37;;;;;;;;;;;25.40;99.90;;;;;;4973503;28;19922;-80
2023/08/21 16:05:03;;;;;;;;;;;25.30;99.90;;;;;;4973916;28;19922;-79
2023/08/21 16:07:30;;;;;;;;;;;25.40;99.90;;;;;;4971701;28;19967;-78
2023/08/21 16:09:55;;;;;;;;;;;25.50;99.90;;;;;;4962915;28;19941;-80
2023/08/21 16:12:23;;;;;;;;;;;25.50;99.90;;;;;;4975076;28;20331;-80
2023/08/21 16:14:49;;;;;;;;;;;25.50;99.90;;;;;;4976077;28;20032;-79
2023/08/21 16:17:14;;;;;;;;;;;25.50;99.90;;;;;;4975812;28;20403;-80
2023/08/21 16:19:40;;;;;;;;;;;25.50;99.90;;;;;;4976018;28;19945;-79
2023/08/21 16:22:05;;;;;;;;;;;25.40;99.90;;;;;;4975520;28;20307;-78
2023/08/21 16:24:31;;;;;;;;;;;25.30;99.90;;;;;;4975904;28;19922;-78
2023/08/21 16:26:57;;;;;;;;;;;25.20;99.90;;;;;;4975677;28;19926;-79
2023/08/21 16:29:22;;;;;;;;;;;25.10;99.90;;;;;;4975801;28;19926;-78
2023/08/21 16:31:49;;;;;;;;;;;25.10;99.90;;;;;;4977070;28;19926;-78
2023/08/21 16:34:15;;;;;;;;;;;25.10;99.90;;;;;;4975476;28;19930;-80
2023/08/21 16:36:41;;;;;;;;;;;25.10;99.90;;;;;;4975645;28;19973;-80
2023/08/21 16:39:06;;;;;;;;;;;25.00;99.90;;;;;;4975791;28;19972;-79
2023/08/21 16:41:32;;;;;;;;;;;25.00;99.90;;;;;;4975543;28;19922;-79
2023/08/21 16:43:57;;;;;;;;;;;24.90;99.90;;;;;;4975602;28;19926;-79
2023/08/21 16:46:23;;;;;;;;;;;24.80;99.90;;;;;;4975386;28;20707;-79
2023/08/21 16:48:49;;;;;;;;;;;24.70;99.90;;;;;;4974991;28;19981;-80
2023/08/21 16:51:14;;;;;;;;;;;24.70;99.90;;;;;;4975199;28;19930;-79
2023/08/21 16:53:40;;;;;;;;;;;24.50;99.90;;;;;;4975200;28;19923;-80
2023/08/21 16:56:06;;;;;;;;;;;24.50;99.90;;;;;;4976543;28;20276;-80
2023/08/21 16:58:32;;;;;;;;;;;24.40;99.90;;;;;;4976794;28;19922;-80
2023/08/21 17:00:58;;;;;;;;;;;24.40;99.90;;;;;;4974934;28;20028;-80
2023/08/21 17:03:23;;;;;;;;;;;24.30;99.90;;;;;;4976578;28;19928;-80
2023/08/21 17:05:49;;;;;;;;;;;24.30;99.90;;;;;;4975211;28;20382;-80
2023/08/21 17:08:14;;;;;;;;;;;24.20;99.90;;;;;;4974712;28;20422;-79
2023/08/21 17:10:40;;;;;;;;;;;24.10;99.90;;;;;;4974775;28;20012;-80